Time;durP1;ratioP1;P1;durP2;ratioP2;P2;SDS_P1;SDS_P2;PMS_P1;PMS_P2;Temp;Humidity;BMP_temperature;BMP_pressure;BME280_temperature;BME280_humidity;BME280_pressure;Samples;Min_cycle;Max_cycle;Signal;HPM_P1;HPM_P2
2023/12/24 00:00:25;;;;;;;5.93;3.70;;;3.30;99.90;;;;;;5009438;28;20018;-86
2023/12/24 00:02:50;;;;;;;3.85;3.20;;;3.30;99.90;;;;;;5007655;28;20036;-85
2023/12/24 00:05:16;;;;;;;4.18;3.20;;;3.30;99.90;;;;;;5002788;28;20019;-86
2023/12/24 00:07:41;;;;;;;4.93;3.38;;;3.30;99.90;;;;;;5011210;28;20018;-86
2023/12/24 00:10:07;;;;;;;3.88;3.03;;;3.30;99.90;;;;;;5005638;28;20018;-86
2023/12/24 00:12:33;;;;;;;3.92;2.92;;;3.30;99.90;;;;;;5010886;28;20018;-86
2023/12/24 00:15:00;;;;;;;5.13;3.08;;;3.30;99.90;;;;;;5010099;28;20022;-85
2023/12/24 00:17:25;;;;;;;4.35;3.47;;;3.40;99.90;;;;;;5004479;28;20080;-86
2023/12/24 00:19:51;;;;;;;4.45;3.33;;;3.40;99.90;;;;;;5010384;28;20049;-85
2023/12/24 00:22:16;;;;;;;3.00;2.70;;;3.30;99.90;;;;;;5009724;28;20021;-86
2023/12/24 00:24:43;;;;;;;2.63;2.08;;;3.30;99.90;;;;;;5009267;28;20033;-86
2023/12/24 00:27:09;;;;;;;4.38;2.10;;;3.30;99.90;;;;;;5008952;28;20018;-86
2023/12/24 00:29:36;;;;;;;1.63;1.15;;;3.30;99.90;;;;;;5006940;28;20026;-86
2023/12/24 00:32:01;;;;;;;1.58;1.20;;;3.30;99.90;;;;;;5008183;28;20030;-86
2023/12/24 00:34:27;;;;;;;1.95;1.35;;;3.30;99.90;;;;;;5010898;28;20494;-86
2023/12/24 00:36:52;;;;;;;1.38;1.27;;;3.30;99.90;;;;;;5011885;28;20033;-86
2023/12/24 00:39:18;;;;;;;1.45;1.20;;;3.30;99.90;;;;;;5013086;28;20394;-86
2023/12/24 00:41:43;;;;;;;1.73;1.13;;;3.30;99.90;;;;;;5008713;28;20552;-86
2023/12/24 00:44:09;;;;;;;1.45;1.30;;;3.30;99.90;;;;;;5014245;28;20381;-86
2023/12/24 00:46:34;;;;;;;1.05;0.88;;;3.20;99.90;;;;;;5011699;28;20441;-86
2023/12/24 00:49:00;;;;;;;1.38;1.27;;;3.30;99.90;;;;;;5012738;28;20492;-86
2023/12/24 00:51:26;;;;;;;1.25;1.15;;;3.30;99.90;;;;;;5010365;28;20544;-86
2023/12/24 00:53:51;;;;;;;1.27;1.15;;;3.30;99.90;;;;;;5014111;28;20389;-86
2023/12/24 00:56:17;;;;;;;1.23;1.13;;;3.30;99.90;;;;;;5009921;28;20017;-86
2023/12/24 00:58:44;;;;;;;1.00;0.98;;;3.30;99.90;;;;;;5013406;28;20026;-87
2023/12/24 01:01:09;;;;;;;0.90;0.75;;;3.30;99.90;;;;;;5005568;28;20048;-86
2023/12/24 01:03:35;;;;;;;1.30;1.17;;;3.30;99.90;;;;;;5009298;28;20026;-86
2023/12/24 01:06:00;;;;;;;1.40;1.00;;;3.30;99.90;;;;;;5007951;28;20512;-85
2023/12/24 01:08:26;;;;;;;1.00;0.90;;;3.30;99.90;;;;;;5007086;28;20604;-87
2023/12/24 01:10:51;;;;;;;1.10;0.85;;;3.30;99.90;;;;;;5012173;28;20505;-86
2023/12/24 01:13:19;;;;;;;1.02;0.80;;;3.30;99.90;;;;;;5011775;28;20018;-86
2023/12/24 01:15:46;;;;;;;1.10;0.80;;;3.30;99.90;;;;;;5007959;28;20482;-85
2023/12/24 01:18:12;;;;;;;1.30;1.20;;;3.30;99.90;;;;;;5009159;28;20556;-86
2023/12/24 01:20:38;;;;;;;1.20;1.10;;;3.30;99.90;;;;;;5003453;28;20014;-86
2023/12/24 01:23:04;;;;;;;1.92;1.00;;;3.40;99.90;;;;;;5002298;28;20022;-86
2023/12/24 01:25:29;;;;;;;1.25;1.15;;;3.40;99.90;;;;;;5006872;28;20026;-86
2023/12/24 01:27:55;;;;;;;1.38;1.27;;;3.40;99.90;;;;;;5010443;28;20011;-85
2023/12/24 01:30:20;;;;;;;1.00;1.00;;;3.40;99.90;;;;;;5018582;28;20065;-86
2023/12/24 01:32:46;;;;;;;2.00;1.40;;;3.40;99.90;;;;;;5008977;28;20068;-86
2023/12/24 01:35:11;;;;;;;1.17;1.08;;;3.50;99.90;;;;;;5007932;28;20014;-86
2023/12/24 01:37:37;;;;;;;2.05;1.63;;;3.40;99.90;;;;;;5007269;28;20133;-86
2023/12/24 01:40:03;;;;;;;2.30;1.85;;;3.40;99.90;;;;;;5010390;28;20033;-86
2023/12/24 01:42:28;;;;;;;1.95;1.75;;;3.40;99.90;;;;;;5003825;28;20057;-87
2023/12/24 01:44:54;;;;;;;1.98;1.70;;;3.50;99.90;;;;;;5010504;28;20018;-86
2023/12/24 01:47:20;;;;;;;1.80;1.63;;;3.50;99.90;;;;;;5008192;28;20017;-86
2023/12/24 01:49:50;;;;;;;2.13;1.90;;;3.50;99.90;;;;;;5008978;28;20029;-86
2023/12/24 01:52:17;;;;;;;1.70;1.60;;;3.50;99.90;;;;;;5010695;28;20030;-86
2023/12/24 01:54:47;;;;;;;1.70;1.60;;;3.50;99.90;;;;;;5008351;28;20037;-86
2023/12/24 01:57:13;;;;;;;2.40;1.60;;;3.50;99.90;;;;;;5007615;28;20042;-86
2023/12/24 01:59:40;;;;;;;1.95;1.65;;;3.50;99.90;;;;;;5007908;28;20022;-86
2023/12/24 02:02:06;;;;;;;2.78;2.05;;;3.50;99.90;;;;;;5010577;28;20057;-85
2023/12/24 02:04:32;;;;;;;2.47;1.85;;;3.50;99.90;;;;;;5011827;28;20115;-87
2023/12/24 02:06:58;;;;;;;2.53;2.13;;;3.50;99.90;;;;;;5007154;28;20014;-86
2023/12/24 02:09:23;;;;;;;2.72;2.33;;;3.50;99.90;;;;;;5008558;28;20030;-86
2023/12/24 02:11:50;;;;;;;2.60;2.28;;;3.60;99.90;;;;;;5010597;28;20257;-86
2023/12/24 02:14:16;;;;;;;3.10;2.65;;;3.60;99.90;;;;;;5007044;28;20050;-86
2023/12/24 02:16:45;;;;;;;2.47;2.22;;;3.60;99.90;;;;;;5005038;28;20101;-86
2023/12/24 02:19:17;;;;;;;3.15;2.20;;;3.70;99.90;;;;;;5007129;28;20034;-85
2023/12/24 02:21:42;;;;;;;3.75;3.00;;;3.70;99.90;;;;;;5008768;28;20025;-86
2023/12/24 02:24:08;;;;;;;3.95;3.15;;;3.80;99.90;;;;;;5010253;28;20105;-86
2023/12/24 02:26:46;;;;;;;3.17;2.63;;;3.80;99.90;;;;;;5007702;28;20144;-86
2023/12/24 02:29:30;;;;;;;3.72;3.15;;;3.90;99.90;;;;;;5008011;28;20049;-85
2023/12/24 02:32:10;;;;;;;4.68;3.75;;;4.00;99.90;;;;;;5008870;28;20045;-87
2023/12/24 02:34:38;;;;;;;3.55;3.05;;;4.00;99.90;;;;;;5002613;28;20135;-86
2023/12/24 02:37:05;;;;;;;5.18;3.28;;;4.20;99.90;;;;;;5009597;28;20045;-86
2023/12/24 02:39:31;;;;;;;4.32;3.08;;;4.40;99.90;;;;;;5007013;28;20026;-85
2023/12/24 02:41:56;;;;;;;3.30;2.40;;;4.60;99.90;;;;;;5008668;28;20596;-86
2023/12/24 02:44:22;;;;;;;1.95;1.60;;;4.80;99.90;;;;;;5006551;28;20072;-86
2023/12/24 02:46:47;;;;;;;0.85;0.85;;;5.10;99.90;;;;;;5006249;28;20022;-86
2023/12/24 02:49:14;;;;;;;0.70;0.60;;;5.40;99.90;;;;;;5007045;28;20030;-86
2023/12/24 02:51:40;;;;;;;0.60;0.40;;;5.80;99.90;;;;;;5007714;28;20036;-86
2023/12/24 02:54:05;;;;;;;2.35;0.55;;;6.10;99.90;;;;;;5009792;28;20104;-86
2023/12/24 02:56:36;;;;;;;0.70;0.50;;;6.30;99.90;;;;;;5010639;28;20056;-86
2023/12/24 02:59:05;;;;;;;0.40;0.40;;;6.50;99.90;;;;;;5009406;28;20018;-86
2023/12/24 03:01:30;;;;;;;0.60;0.60;;;6.50;99.90;;;;;;5011515;28;20606;-86
2023/12/24 03:03:57;;;;;;;0.30;0.25;;;6.80;99.90;;;;;;5007710;28;20121;-85
2023/12/24 03:06:23;;;;;;;0.40;0.40;;;7.00;99.90;;;;;;5003859;28;20028;-86
2023/12/24 03:08:48;;;;;;;0.40;0.40;;;7.10;99.90;;;;;;5008719;28;20022;-87
2023/12/24 03:11:14;;;;;;;0.30;0.30;;;7.10;99.90;;;;;;5007009;28;20042;-87
2023/12/24 03:13:40;;;;;;;0.30;0.30;;;7.10;99.90;;;;;;5008563;28;20029;-86
2023/12/24 03:16:05;;;;;;;0.52;0.50;;;7.10;99.90;;;;;;5005948;28;20026;-86
2023/12/24 03:18:31;;;;;;;0.40;0.40;;;7.10;99.90;;;;;;5016154;28;20034;-87
2023/12/24 03:20:57;;;;;;;0.30;0.30;;;7.10;99.90;;;;;;5005585;28;20026;-86
2023/12/24 03:23:22;;;;;;;1.73;0.40;;;7.20;99.90;;;;;;5006910;28;20136;-86
2023/12/24 03:25:48;;;;;;;1.10;0.30;;;7.30;99.90;;;;;;5006167;28;20025;-86
2023/12/24 03:28:14;;;;;;;0.35;0.30;;;7.30;99.90;;;;;;5006256;28;20033;-87
2023/12/24 03:30:40;;;;;;;0.20;0.20;;;7.40;99.90;;;;;;5009835;28;20049;-87
2023/12/24 03:33:05;;;;;;;0.43;0.10;;;7.40;99.90;;;;;;5006975;28;20022;-86
2023/12/24 03:35:31;;;;;;;0.22;0.22;;;7.40;99.90;;;;;;5007746;28;20070;-87
2023/12/24 03:37:56;;;;;;;0.32;0.30;;;7.50;99.90;;;;;;5008642;28;20447;-88
2023/12/24 03:40:22;;;;;;;0.82;0.30;;;7.40;99.90;;;;;;5008942;28;20054;-88
2023/12/24 03:42:47;;;;;;;0.40;0.20;;;7.50;99.90;;;;;;5008386;28;20575;-88
2023/12/24 03:45:13;;;;;;;0.20;0.20;;;7.50;99.90;;;;;;5002949;28;20551;-87
2023/12/24 03:47:38;;;;;;;0.60;0.50;;;7.50;99.90;;;;;;5003994;28;20018;-87
2023/12/24 03:50:05;;;;;;;0.13;0.13;;;7.50;99.90;;;;;;5003347;28;20029;-88
2023/12/24 03:52:31;;;;;;;0.40;0.40;;;7.50;99.90;;;;;;5008109;28;20030;-88
2023/12/24 03:54:56;;;;;;;0.38;0.30;;;7.60;99.90;;;;;;5012725;28;20084;-89
2023/12/24 03:57:22;;;;;;;1.58;0.25;;;7.60;99.90;;;;;;5029241;28;20032;-88
2023/12/24 03:59:47;;;;;;;0.25;0.20;;;7.70;99.90;;;;;;5027380;28;20177;-86
2023/12/24 04:02:13;;;;;;;0.20;0.20;;;7.60;99.90;;;;;;5014236;28;20117;-88
2023/12/24 04:04:45;;;;;;;0.63;0.40;;;7.60;99.90;;;;;;5006257;28;20108;-88
2023/12/24 04:07:10;;;;;;;1.27;0.20;;;7.60;99.90;;;;;;5005172;28;20486;-87
2023/12/24 04:09:36;;;;;;;0.45;0.30;;;7.70;99.90;;;;;;5003414;28;20029;-87
2023/12/24 04:12:01;;;;;;;0.22;0.22;;;7.60;99.90;;;;;;5008611;28;20041;-87
2023/12/24 04:14:27;;;;;;;0.30;0.30;;;7.70;99.90;;;;;;5009802;28;20037;-87
2023/12/24 04:16:52;;;;;;;0.40;0.40;;;7.70;99.90;;;;;;5009142;28;20033;-87
2023/12/24 04:19:18;;;;;;;0.30;0.30;;;7.70;99.90;;;;;;5007019;28;20087;-87
2023/12/24 04:21:43;;;;;;;0.88;0.50;;;7.70;99.90;;;;;;5007974;28;20418;-87
2023/12/24 04:24:09;;;;;;;0.40;0.40;;;7.80;99.90;;;;;;5007042;28;20524;-87
2023/12/24 04:26:36;;;;;;;0.20;0.20;;;7.70;99.90;;;;;;5009771;28;20493;-87
2023/12/24 04:29:02;;;;;;;0.38;0.32;;;7.70;99.90;;;;;;5009678;28;21497;-87
2023/12/24 04:31:28;;;;;;;0.80;0.50;;;7.70;99.90;;;;;;5008444;28;20487;-87
2023/12/24 04:33:53;;;;;;;0.63;0.40;;;7.70;99.90;;;;;;5008431;28;20141;-86
2023/12/24 04:36:22;;;;;;;0.20;0.20;;;7.80;99.90;;;;;;5003139;28;20034;-88
2023/12/24 04:38:47;;;;;;;0.63;0.30;;;7.80;99.90;;;;;;5006930;28;20029;-88
2023/12/24 04:41:17;;;;;;;0.50;0.30;;;7.80;99.90;;;;;;5006084;28;20482;-88
2023/12/24 04:43:42;;;;;;;1.50;0.32;;;7.80;99.90;;;;;;5007166;28;20444;-88
2023/12/24 04:46:08;;;;;;;0.68;0.22;;;7.80;99.90;;;;;;5007313;28;20109;-87
2023/12/24 04:48:33;;;;;;;0.60;0.40;;;7.90;99.90;;;;;;5002684;28;20045;-88
2023/12/24 04:50:59;;;;;;;1.00;0.47;;;7.80;99.90;;;;;;5008408;28;20204;-88
2023/12/24 04:53:24;;;;;;;0.32;0.30;;;7.80;99.90;;;;;;5008255;28;20022;-86
2023/12/24 04:55:50;;;;;;;0.40;0.40;;;7.80;99.90;;;;;;5019994;28;20030;-87
2023/12/24 04:58:15;;;;;;;1.70;0.25;;;7.80;99.90;;;;;;5009746;28;20029;-88
2023/12/24 05:00:41;;;;;;;0.52;0.32;;;7.80;99.90;;;;;;5009271;28;20014;-88
2023/12/24 05:03:06;;;;;;;0.28;0.20;;;7.90;99.90;;;;;;5009630;28;20018;-87
2023/12/24 05:05:32;;;;;;;1.10;0.40;;;7.90;99.90;;;;;;5009935;28;20089;-88
2023/12/24 05:07:57;;;;;;;1.30;0.30;;;7.90;99.90;;;;;;5014296;28;20057;-87
2023/12/24 05:10:23;;;;;;;0.30;0.30;;;7.90;99.90;;;;;;5007340;28;20037;-88
2023/12/24 05:12:49;;;;;;;0.30;0.30;;;7.90;99.90;;;;;;5009122;28;20101;-88
2023/12/24 05:15:16;;;;;;;0.25;0.25;;;7.90;99.90;;;;;;5006632;28;20018;-87
2023/12/24 05:17:42;;;;;;;0.40;0.17;;;7.90;99.90;;;;;;5009721;28;20018;-87
2023/12/24 05:20:08;;;;;;;1.10;0.38;;;7.90;99.90;;;;;;5010956;28;20433;-88
2023/12/24 05:22:33;;;;;;;0.43;0.40;;;7.90;99.90;;;;;;5011915;28;20022;-88
2023/12/24 05:24:59;;;;;;;0.15;0.15;;;7.90;99.90;;;;;;5010709;28;20042;-88
2023/12/24 05:27:25;;;;;;;0.30;0.30;;;7.90;99.90;;;;;;5006335;28;20081;-88
2023/12/24 05:29:50;;;;;;;0.20;0.20;;;7.90;99.90;;;;;;5012332;28;20521;-87
2023/12/24 05:32:16;;;;;;;0.32;0.30;;;7.90;99.90;;;;;;5011014;28;20486;-88
2023/12/24 05:34:42;;;;;;;0.30;0.30;;;8.00;99.90;;;;;;5011384;28;20637;-88
2023/12/24 05:37:08;;;;;;;0.20;0.20;;;7.90;99.90;;;;;;5006793;28;20024;-88
2023/12/24 05:39:33;;;;;;;0.25;0.25;;;8.00;99.90;;;;;;5007618;28;20703;-87
2023/12/24 05:41:59;;;;;;;0.28;0.20;;;8.00;99.90;;;;;;5008695;28;20101;-87
2023/12/24 05:44:25;;;;;;;2.75;1.38;;;8.00;99.90;;;;;;5011491;28;20021;-88
2023/12/24 05:46:51;;;;;;;0.40;0.40;;;8.00;99.90;;;;;;5009825;28;20018;-87
2023/12/24 05:49:17;;;;;;;0.75;0.25;;;8.00;99.90;;;;;;5008323;28;20049;-87
2023/12/24 05:51:42;;;;;;;0.40;0.38;;;8.10;99.90;;;;;;5007130;28;20056;-87
2023/12/24 05:54:08;;;;;;;0.30;0.20;;;8.00;99.90;;;;;;5010828;28;20024;-88
2023/12/24 05:56:34;;;;;;;0.28;0.28;;;8.00;99.90;;;;;;5006881;28;20030;-88
2023/12/24 05:58:59;;;;;;;2.25;0.30;;;8.00;99.90;;;;;;5006904;28;20140;-87
2023/12/24 06:01:25;;;;;;;0.10;0.10;;;8.00;99.90;;;;;;5011124;28;20100;-89
2023/12/24 06:03:50;;;;;;;0.30;0.30;;;8.00;99.90;;;;;;5007852;28;20600;-88
2023/12/24 06:06:16;;;;;;;0.55;0.22;;;8.00;99.90;;;;;;5009514;28;20022;-88
2023/12/24 06:08:41;;;;;;;0.95;0.43;;;8.00;99.90;;;;;;5010080;28;20112;-88
2023/12/24 06:11:15;;;;;;;0.25;0.20;;;8.00;99.90;;;;;;5008151;28;20058;-88
2023/12/24 06:13:41;;;;;;;0.60;0.20;;;8.00;99.90;;;;;;5008563;28;20038;-88
2023/12/24 06:16:07;;;;;;;0.65;0.10;;;8.00;99.90;;;;;;5010888;28;20029;-87
2023/12/24 06:18:32;;;;;;;0.28;0.13;;;8.00;99.90;;;;;;5010336;28;20034;-87
2023/12/24 06:20:58;;;;;;;0.40;0.30;;;8.00;99.90;;;;;;5010363;28;20581;-88
2023/12/24 06:23:23;;;;;;;0.45;0.40;;;8.10;99.90;;;;;;5006512;28;20503;-88
2023/12/24 06:25:49;;;;;;;0.65;0.30;;;8.00;99.90;;;;;;5008516;28;20146;-88
2023/12/24 06:28:14;;;;;;;0.40;0.40;;;8.00;99.90;;;;;;5006100;28;20108;-88
2023/12/24 06:30:40;;;;;;;0.30;0.30;;;8.10;99.90;;;;;;5009009;28;20056;-87
2023/12/24 06:33:05;;;;;;;0.70;0.40;;;8.10;99.90;;;;;;5002135;28;20026;-88
2023/12/24 06:35:31;;;;;;;0.20;0.20;;;8.10;99.90;;;;;;5010913;28;20029;-88
2023/12/24 06:37:57;;;;;;;0.22;0.22;;;8.10;99.90;;;;;;5008597;28;20026;-87
2023/12/24 06:40:23;;;;;;;0.20;0.20;;;8.10;99.90;;;;;;5008307;28;20528;-87
2023/12/24 06:42:49;;;;;;;0.35;0.30;;;8.10;99.90;;;;;;5010513;28;20022;-88
2023/12/24 06:45:14;;;;;;;0.52;0.45;;;8.10;99.90;;;;;;5007809;28;20107;-88
2023/12/24 06:47:40;;;;;;;0.25;0.25;;;8.10;99.90;;;;;;5009133;28;20030;-88
2023/12/24 06:50:06;;;;;;;0.60;0.50;;;8.20;99.90;;;;;;5009788;28;20040;-88
2023/12/24 06:52:33;;;;;;;0.40;0.40;;;8.20;99.90;;;;;;5008302;28;20068;-88
2023/12/24 06:54:59;;;;;;;0.38;0.30;;;8.20;99.90;;;;;;5018319;28;20113;-88
2023/12/24 06:57:24;;;;;;;1.40;0.43;;;8.10;99.90;;;;;;5006351;28;20118;-87
2023/12/24 06:59:50;;;;;;;0.47;0.20;;;8.10;99.90;;;;;;5009085;28;20395;-88
2023/12/24 07:02:16;;;;;;;0.32;0.32;;;8.10;99.90;;;;;;5008982;28;20113;-87
2023/12/24 07:04:41;;;;;;;0.77;0.30;;;8.20;99.90;;;;;;5007903;28;20482;-88
2023/12/24 07:07:07;;;;;;;0.38;0.38;;;8.20;99.90;;;;;;5005229;28;20110;-89
2023/12/24 07:09:32;;;;;;;0.35;0.35;;;8.20;99.90;;;;;;5010434;28;20454;-89
2023/12/24 07:11:58;;;;;;;0.35;0.30;;;8.20;99.90;;;;;;5009631;28;20556;-88
2023/12/24 07:14:24;;;;;;;0.38;0.30;;;8.20;99.90;;;;;;5009143;28;20030;-89
2023/12/24 07:16:49;;;;;;;0.32;0.32;;;8.20;99.90;;;;;;5006980;28;20026;-87
2023/12/24 07:19:15;;;;;;;0.22;0.22;;;8.20;99.90;;;;;;5008889;28;20030;-88
2023/12/24 07:21:40;;;;;;;0.38;0.38;;;8.20;99.90;;;;;;5009592;28;20040;-88
2023/12/24 07:24:06;;;;;;;1.02;0.60;;;8.20;99.90;;;;;;5010722;28;20025;-88
2023/12/24 07:26:32;;;;;;;0.50;0.50;;;8.20;99.90;;;;;;5007782;28;20132;-88
2023/12/24 07:28:57;;;;;;;0.43;0.43;;;8.20;99.90;;;;;;5007855;28;20482;-89
2023/12/24 07:31:23;;;;;;;2.55;0.50;;;8.20;99.90;;;;;;5004933;28;20026;-88
2023/12/24 07:33:48;;;;;;;0.45;0.40;;;8.30;99.90;;;;;;5008584;28;20026;-88
2023/12/24 07:36:14;;;;;;;0.82;0.63;;;8.30;99.90;;;;;;5006654;28;20033;-88
2023/12/24 07:38:39;;;;;;;0.60;0.60;;;8.30;99.90;;;;;;5008718;28;20594;-88
2023/12/24 07:41:05;;;;;;;0.90;0.90;;;8.30;99.90;;;;;;5005980;28;20486;-88
2023/12/24 07:43:30;;;;;;;0.52;0.52;;;8.30;99.90;;;;;;5007244;28;20041;-88
2023/12/24 07:45:56;;;;;;;2.85;0.60;;;8.30;99.90;;;;;;5006830;28;20026;-88
2023/12/24 07:48:24;;;;;;;0.55;0.55;;;8.30;99.90;;;;;;5009186;28;20022;-88
2023/12/24 07:50:50;;;;;;;0.88;0.70;;;8.40;99.90;;;;;;5004888;28;20014;-88
2023/12/24 07:53:15;;;;;;;0.60;0.60;;;8.40;99.90;;;;;;5006514;28;20026;-88
2023/12/24 07:55:41;;;;;;;0.70;0.52;;;8.40;99.90;;;;;;5001129;28;20095;-88
2023/12/24 07:58:06;;;;;;;0.35;0.35;;;8.40;99.90;;;;;;5003570;28;20064;-88
2023/12/24 08:00:32;;;;;;;0.60;0.60;;;8.40;99.90;;;;;;5004048;28;20121;-88
2023/12/24 08:02:57;;;;;;;0.63;0.57;;;8.40;99.90;;;;;;5008454;28;20495;-88
2023/12/24 08:05:23;;;;;;;0.45;0.45;;;8.40;99.90;;;;;;5007420;28;20026;-90
2023/12/24 08:07:48;;;;;;;0.50;0.50;;;8.40;99.90;;;;;;5008993;28;20072;-87
2023/12/24 08:10:14;;;;;;;0.50;0.50;;;8.50;99.90;;;;;;5006935;28;20015;-89
2023/12/24 08:12:40;;;;;;;0.70;0.50;;;8.50;99.90;;;;;;5005643;28;20501;-89
2023/12/24 08:15:06;;;;;;;0.80;0.50;;;8.50;99.90;;;;;;5007192;28;20029;-88
2023/12/24 08:17:32;;;;;;;0.60;0.50;;;8.50;99.90;;;;;;5004867;28;20069;-88
2023/12/24 08:19:57;;;;;;;0.35;0.35;;;8.50;99.90;;;;;;5007992;28;20493;-88
2023/12/24 08:22:23;;;;;;;1.13;0.52;;;8.50;99.90;;;;;;5009408;28;20045;-88
2023/12/24 08:24:49;;;;;;;0.43;0.43;;;8.60;99.90;;;;;;5004813;28;20057;-88
2023/12/24 08:27:15;;;;;;;1.70;0.60;;;8.50;99.90;;;;;;5005653;28;20007;-88
2023/12/24 08:29:40;;;;;;;0.40;0.40;;;8.60;99.90;;;;;;5004968;28;20080;-88
2023/12/24 08:32:06;;;;;;;0.35;0.35;;;8.60;99.90;;;;;;5008164;28;20482;-89
2023/12/24 08:34:32;;;;;;;1.15;0.38;;;8.60;99.90;;;;;;5000024;28;20097;-88
2023/12/24 08:36:58;;;;;;;0.40;0.20;;;8.60;99.90;;;;;;5005993;28;20034;-89
2023/12/24 08:39:24;;;;;;;0.77;0.57;;;8.70;99.90;;;;;;5010941;28;20030;-88
2023/12/24 08:41:49;;;;;;;0.55;0.55;;;8.70;99.90;;;;;;5018814;28;20071;-90
2023/12/24 08:44:16;;;;;;;0.50;0.50;;;8.70;99.90;;;;;;5015172;28;20022;-88
2023/12/24 08:46:45;;;;;;;0.88;0.60;;;8.70;99.90;;;;;;5007870;28;20076;-88
2023/12/24 08:49:11;;;;;;;0.55;0.50;;;8.70;99.90;;;;;;5008304;28;20124;-89
2023/12/24 08:51:37;;;;;;;0.60;0.60;;;8.70;99.90;;;;;;5005819;28;20149;-88
2023/12/24 08:54:02;;;;;;;1.05;0.47;;;8.70;99.90;;;;;;5012321;28;20034;-88
2023/12/24 08:56:33;;;;;;;1.00;0.60;;;8.70;99.90;;;;;;5007756;28;20030;-89
2023/12/24 08:58:58;;;;;;;3.25;0.70;;;8.70;99.90;;;;;;5009891;28;20478;-89
2023/12/24 09:01:24;;;;;;;0.50;0.50;;;8.80;99.90;;;;;;5008010;28;20116;-89
2023/12/24 09:03:50;;;;;;;2.00;0.75;;;8.80;99.90;;;;;;5009499;28;20030;-88
2023/12/24 09:06:15;;;;;;;0.80;0.63;;;8.80;99.90;;;;;;5005482;28;20505;-89
2023/12/24 09:08:41;;;;;;;0.93;0.70;;;8.80;99.90;;;;;;5003203;28;20069;-89
2023/12/24 09:11:06;;;;;;;0.47;0.47;;;8.80;99.90;;;;;;5007126;28;20088;-89
2023/12/24 09:13:32;;;;;;;0.50;0.50;;;8.90;99.90;;;;;;5006022;28;20033;-88
2023/12/24 09:15:57;;;;;;;0.32;0.32;;;8.80;99.90;;;;;;5004822;28;20044;-89
2023/12/24 09:18:23;;;;;;;1.13;0.55;;;8.90;99.90;;;;;;5004953;28;20473;-89
2023/12/24 09:20:50;;;;;;;0.38;0.30;;;8.90;99.90;;;;;;5006600;28;20030;-88
2023/12/24 09:23:16;;;;;;;1.42;1.08;;;8.90;99.90;;;;;;5007589;28;20017;-89
2023/12/24 09:25:41;;;;;;;1.02;0.93;;;8.90;99.90;;;;;;5006251;28;20624;-88
2023/12/24 09:28:07;;;;;;;0.90;0.90;;;8.90;99.90;;;;;;5002503;28;20030;-89
2023/12/24 09:30:32;;;;;;;0.40;0.40;;;9.00;99.90;;;;;;5001752;28;20030;-88
2023/12/24 09:32:58;;;;;;;0.65;0.65;;;8.90;99.90;;;;;;5004324;28;20077;-89
2023/12/24 09:35:24;;;;;;;0.77;0.50;;;9.00;99.90;;;;;;5006167;28;20034;-89
2023/12/24 09:37:49;;;;;;;0.60;0.60;;;9.00;99.90;;;;;;5006513;28;20371;-89
2023/12/24 09:40:15;;;;;;;2.70;0.80;;;9.00;99.90;;;;;;5006271;28;20052;-89
2023/12/24 09:42:40;;;;;;;0.70;0.60;;;9.00;99.90;;;;;;5008635;28;20033;-88
2023/12/24 09:45:07;;;;;;;1.00;0.90;;;9.00;99.90;;;;;;5006091;28;20497;-89
2023/12/24 09:47:32;;;;;;;0.75;0.75;;;9.00;99.90;;;;;;5002568;28;20518;-88
2023/12/24 09:50:00;;;;;;;2.00;1.52;;;9.10;99.90;;;;;;5008795;28;20129;-89
2023/12/24 09:52:26;;;;;;;1.27;1.15;;;9.10;99.90;;;;;;5003609;28;20053;-90
2023/12/24 09:54:52;;;;;;;0.60;0.52;;;9.10;99.90;;;;;;5008127;28;20033;-88
2023/12/24 09:57:18;;;;;;;0.57;0.47;;;9.20;99.90;;;;;;5003167;28;20021;-89
2023/12/24 09:59:44;;;;;;;0.30;0.30;;;9.20;99.90;;;;;;5005581;28;20088;-89
2023/12/24 10:02:09;;;;;;;0.30;0.30;;;9.20;99.90;;;;;;4998326;28;20042;-89
2023/12/24 10:04:35;;;;;;;0.45;0.30;;;9.20;99.90;;;;;;5006565;28;20025;-89
2023/12/24 10:07:00;;;;;;;0.30;0.30;;;9.20;99.90;;;;;;5011981;28;20030;-88
2023/12/24 10:09:49;;;;;;;0.30;0.30;;;9.20;99.90;;;;;;5006654;28;20046;-89
2023/12/24 10:12:15;;;;;;;0.50;0.45;;;9.30;99.90;;;;;;5019884;28;20022;-90
2023/12/24 10:14:41;;;;;;;0.68;0.50;;;9.20;99.90;;;;;;5030678;28;20042;-89
2023/12/24 10:17:07;;;;;;;0.77;0.55;;;9.30;99.90;;;;;;5030624;28;20041;-88
2023/12/24 10:19:34;;;;;;;0.30;0.30;;;9.30;99.90;;;;;;5011159;28;20951;-88
2023/12/24 10:22:08;;;;;;;0.90;0.70;;;9.40;99.90;;;;;;5009015;28;20141;-89
2023/12/24 10:24:35;;;;;;;0.80;0.70;;;9.40;99.90;;;;;;5007558;28;20033;-88
2023/12/24 10:27:08;;;;;;;0.60;0.60;;;9.40;99.90;;;;;;5007382;28;20029;-88
2023/12/24 10:29:35;;;;;;;0.40;0.40;;;9.40;99.90;;;;;;5010423;28;20030;-88
2023/12/24 10:32:01;;;;;;;1.13;1.00;;;9.40;99.90;;;;;;5017530;28;20470;-88
2023/12/24 10:34:28;;;;;;;0.40;0.40;;;9.50;99.90;;;;;;5005283;28;20022;-89
2023/12/24 10:36:53;;;;;;;1.02;0.70;;;9.40;99.90;;;;;;5010053;28;20105;-89
2023/12/24 10:39:24;;;;;;;0.50;0.50;;;9.40;99.90;;;;;;5008300;28;20116;-88
2023/12/24 10:41:56;;;;;;;0.93;0.80;;;9.50;99.90;;;;;;5002058;28;20112;-89
2023/12/24 10:44:22;;;;;;;3.33;2.67;;;9.50;99.90;;;;;;5005011;28;20553;-89
2023/12/24 10:46:48;;;;;;;2.08;1.83;;;9.50;99.90;;;;;;5000057;28;20034;-88
2023/12/24 10:49:14;;;;;;;3.63;2.70;;;9.50;99.90;;;;;;5008838;28;20084;-89
2023/12/24 10:51:40;;;;;;;1.65;1.10;;;9.50;99.90;;;;;;5005061;28;20042;-89
2023/12/24 10:54:07;;;;;;;5.53;3.83;;;9.50;99.90;;;;;;5006527;28;20133;-89
2023/12/24 10:56:43;;;;;;;3.03;2.80;;;9.50;99.90;;;;;;5004444;28;20058;-88
2023/12/24 10:59:17;;;;;;;;;;;9.60;99.90;;;;;;5004185;28;20434;-90
2023/12/24 11:01:49;;;;;;;2.13;2.03;;;9.60;99.90;;;;;;5004670;28;19920;-89
2023/12/24 11:04:44;;;;;;;2.72;2.38;;;9.60;99.90;;;;;;5004557;28;20026;-89
2023/12/24 11:07:28;;;;;;;1.10;1.00;;;9.70;99.90;;;;;;5004742;28;20056;-89
2023/12/24 11:09:54;;;;;;;3.75;3.35;;;9.70;99.90;;;;;;5002296;28;20022;-89
2023/12/24 11:12:34;;;;;;;3.75;3.20;;;9.70;99.90;;;;;;5003966;28;20044;-89
2023/12/24 11:15:00;;;;;;;2.95;2.42;;;9.70;99.90;;;;;;5001260;28;20385;-88
2023/12/24 11:17:38;;;;;;;2.00;1.90;;;9.70;99.90;;;;;;5004305;28;20021;-88
2023/12/24 11:20:29;;;;;;;2.08;1.88;;;9.70;99.90;;;;;;5001805;28;20030;-88
2023/12/24 11:23:04;;;;;;;1.80;1.70;;;9.70;99.90;;;;;;5004036;28;20550;-88
2023/12/24 11:25:40;;;;;;;1.15;0.95;;;9.70;99.90;;;;;;5003822;28;20044;-88
2023/12/24 11:28:08;;;;;;;0.85;0.85;;;9.80;99.90;;;;;;5000954;28;20031;-89
2023/12/24 11:30:57;;;;;;;1.63;1.08;;;9.80;99.90;;;;;;5003381;28;20118;-88
2023/12/24 11:33:32;;;;;;;1.15;1.05;;;9.80;99.90;;;;;;5006299;28;20100;-88
2023/12/24 11:36:02;;;;;;;0.80;0.80;;;9.80;99.90;;;;;;5004016;28;20037;-88
2023/12/24 11:38:34;;;;;;;0.60;0.60;;;9.80;99.90;;;;;;5005464;28;20014;-88
2023/12/24 11:41:16;;;;;;;1.63;0.90;;;9.80;99.90;;;;;;5001182;28;20088;-90
2023/12/24 11:43:54;;;;;;;0.82;0.60;;;9.90;99.90;;;;;;5005161;28;20342;-88
2023/12/24 11:46:21;;;;;;;1.38;1.25;;;9.80;99.90;;;;;;5002304;28;20128;-88
2023/12/24 11:48:47;;;;;;;0.85;0.82;;;9.90;99.90;;;;;;5004637;28;20473;-88
2023/12/24 11:51:13;;;;;;;0.75;0.73;;;9.90;99.90;;;;;;5004596;28;20084;-88
2023/12/24 11:53:40;;;;;;;1.45;0.63;;;9.90;99.90;;;;;;5007395;28;20049;-88
2023/12/24 11:56:12;;;;;;;0.98;0.63;;;10.00;99.90;;;;;;5005025;28;20491;-88
2023/12/24 11:58:48;;;;;;;0.40;0.40;;;9.90;99.90;;;;;;5004045;28;20026;-88
2023/12/24 12:01:14;;;;;;;0.57;0.55;;;9.90;99.90;;;;;;5001756;28;20018;-89
2023/12/24 12:03:39;;;;;;;0.63;0.63;;;10.00;99.90;;;;;;5006895;28;20026;-88
2023/12/24 12:06:06;;;;;;;0.52;0.52;;;10.00;99.90;;;;;;5006227;28;20021;-89
2023/12/24 12:08:32;;;;;;;0.55;0.40;;;9.90;99.90;;;;;;5005274;28;20022;-88
2023/12/24 12:10:58;;;;;;;0.63;0.55;;;10.00;99.90;;;;;;5003477;28;20026;-88
2023/12/24 12:13:24;;;;;;;2.13;0.68;;;10.00;99.90;;;;;;5002783;28;20022;-88
2023/12/24 12:15:50;;;;;;;1.38;0.45;;;10.00;99.90;;;;;;4999584;28;20018;-88
2023/12/24 12:18:17;;;;;;;1.27;0.52;;;10.00;99.90;;;;;;5002817;28;20018;-90
2023/12/24 12:20:45;;;;;;;0.80;0.60;;;10.00;99.90;;;;;;5010792;28;20042;-88
2023/12/24 12:23:10;;;;;;;0.50;0.50;;;10.00;99.90;;;;;;4986597;28;20113;-88
2023/12/24 12:25:38;;;;;;;2.13;0.90;;;10.00;99.90;;;;;;5001895;28;20081;-88
2023/12/24 12:28:04;;;;;;;0.50;0.50;;;10.00;99.90;;;;;;4998585;28;20085;-88
2023/12/24 12:30:29;;;;;;;0.68;0.60;;;10.00;99.90;;;;;;5004102;28;20049;-88
2023/12/24 12:32:55;;;;;;;0.47;0.47;;;10.10;99.90;;;;;;5008228;28;20113;-88
2023/12/24 12:35:20;;;;;;;2.85;0.60;;;10.10;99.90;;;;;;5004972;28;20026;-88
2023/12/24 12:37:46;;;;;;;1.05;0.60;;;10.10;99.90;;;;;;5006113;28;20026;-88
2023/12/24 12:40:12;;;;;;;1.55;0.50;;;10.10;99.90;;;;;;5006887;28;20041;-89
2023/12/24 12:42:38;;;;;;;3.80;1.77;;;10.10;99.90;;;;;;5005804;28;20061;-88
2023/12/24 12:45:04;;;;;;;0.68;0.68;;;10.10;99.90;;;;;;5004484;28;20021;-88
2023/12/24 12:47:29;;;;;;;0.50;0.50;;;10.10;99.90;;;;;;5000972;28;20029;-88
2023/12/24 12:49:55;;;;;;;0.50;0.50;;;10.10;99.90;;;;;;5005652;28;20030;-89
2023/12/24 12:52:20;;;;;;;0.82;0.80;;;10.10;99.90;;;;;;5005967;28;20042;-88